Time;durP1;ratioP1;P1;durP2;ratioP2;P2;SDS_P1;SDS_P2;PMS_P1;PMS_P2;Temp;Humidity;BMP_temperature;BMP_pressure;BME280_temperature;BME280_humidity;BME280_pressure;Samples;Min_cycle;Max_cycle;Signal;HPM_P1;HPM_P2
2022/11/28 00:00:56;;;;;;;14.20;11.87;;;;;;;;;;4418262;32;20546;-81
2022/11/28 00:03:23;;;;;;;14.43;10.73;;;;;;;;;;4418328;32;20232;-84
2022/11/28 00:05:50;;;;;;;16.00;11.67;;;;;;;;;;4418251;32;20265;-80
2022/11/28 00:08:18;;;;;;;14.53;11.10;;;;;;;;;;4418241;32;20298;-79
2022/11/28 00:10:45;;;;;;;15.13;11.83;;;;;;;;;;4417850;32;20282;-78
2022/11/28 00:13:12;;;;;;;17.33;11.10;;;;;;;;;;4418306;32;20274;-84
2022/11/28 00:15:39;;;;;;;12.90;10.40;;;;;;;;;;4418013;32;20755;-79
2022/11/28 00:18:07;;;;;;;16.73;12.83;;;;;;;;;;4418061;32;20319;-84
2022/11/28 00:20:34;;;;;;;15.67;11.83;;;;;;;;;;4418287;32;20728;-83
2022/11/28 00:23:00;;;;;;;13.67;11.37;;;;;;;;;;4418584;32;20661;-82
2022/11/28 00:25:27;;;;;;;18.90;12.20;;;;;;;;;;4417842;32;20293;-82
2022/11/28 00:27:55;;;;;;;17.97;11.50;;;;;;;;;;4414488;32;20229;-82
2022/11/28 00:30:22;;;;;;;15.73;11.27;;;;;;;;;;4403145;32;20236;-79
2022/11/28 00:32:49;;;;;;;19.63;11.90;;;;;;;;;;4403034;32;20225;-80
2022/11/28 00:35:17;;;;;;;18.53;11.90;;;;;;;;;;4402847;32;20693;-83
2022/11/28 00:37:44;;;;;;;15.63;12.33;;;;;;;;;;4415546;32;20237;-79
2022/11/28 00:40:11;;;;;;;18.67;12.23;;;;;;;;;;4417589;32;20306;-83
2022/11/28 00:42:38;;;;;;;11.97;9.40;;;;;;;;;;4417901;32;20221;-79
2022/11/28 00:45:05;;;;;;;13.23;10.43;;;;;;;;;;4417839;32;20221;-81
2022/11/28 00:47:32;;;;;;;15.93;11.50;;;;;;;;;;4417939;32;20233;-83
2022/11/28 00:49:58;;;;;;;14.97;10.87;;;;;;;;;;4418249;32;20236;-81
2022/11/28 00:52:27;;;;;;;14.30;10.63;;;;;;;;;;4417744;32;20295;-80
2022/11/28 00:54:54;;;;;;;12.73;10.27;;;;;;;;;;4417740;32;20221;-81
2022/11/28 00:57:21;;;;;;;15.63;10.83;;;;;;;;;;4417623;32;20902;-81
2022/11/28 00:59:48;;;;;;;14.80;10.60;;;;;;;;;;4417960;32;20641;-80
2022/11/28 01:02:15;;;;;;;15.03;10.30;;;;;;;;;;4418004;32;20240;-81
2022/11/28 01:04:41;;;;;;;14.33;10.37;;;;;;;;;;4417637;32;20217;-83
2022/11/28 01:07:08;;;;;;;12.97;10.07;;;;;;;;;;4417734;32;20245;-79
2022/11/28 01:09:36;;;;;;;17.67;9.27;;;;;;;;;;4417390;32;20274;-81
2022/11/28 01:12:03;;;;;;;13.20;9.37;;;;;;;;;;4417758;32;20244;-80
2022/11/28 01:14:30;;;;;;;14.53;11.37;;;;;;;;;;4417878;32;20244;-77
2022/11/28 01:16:57;;;;;;;15.43;12.03;;;;;;;;;;4418020;32;20335;-77
2022/11/28 01:19:24;;;;;;;17.60;12.03;;;;;;;;;;4418229;32;20292;-80
2022/11/28 01:21:52;;;;;;;15.80;11.97;;;;;;;;;;4417652;32;20272;-82
2022/11/28 01:24:19;;;;;;;16.93;12.70;;;;;;;;;;4418086;32;20229;-79
2022/11/28 01:26:47;;;;;;;17.37;10.50;;;;;;;;;;4420516;32;20241;-79
2022/11/28 01:29:15;;;;;;;17.60;9.73;;;;;;;;;;4420691;32;20240;-79
2022/11/28 01:31:42;;;;;;;15.80;9.17;;;;;;;;;;4407147;32;20272;-78
2022/11/28 01:34:08;;;;;;;14.33;10.60;;;;;;;;;;4414427;32;20287;-78
2022/11/28 01:36:35;;;;;;;14.07;10.10;;;;;;;;;;4405304;32;20245;-78
2022/11/28 01:39:03;;;;;;;17.30;10.33;;;;;;;;;;4404826;32;20249;-79
2022/11/28 01:41:30;;;;;;;14.00;9.70;;;;;;;;;;4416445;32;20643;-78
2022/11/28 01:44:01;;;;;;;15.57;10.07;;;;;;;;;;4420777;32;20308;-77
2022/11/28 01:46:28;;;;;;;17.33;11.97;;;;;;;;;;4420515;32;20229;-78
2022/11/28 01:48:59;;;;;;;17.17;11.67;;;;;;;;;;4420898;32;20286;-80
2022/11/28 01:51:26;;;;;;;16.07;10.83;;;;;;;;;;4420467;32;20286;-80
2022/11/28 01:53:54;;;;;;;17.30;11.37;;;;;;;;;;4420502;32;20245;-79
2022/11/28 01:56:25;;;;;;;15.87;11.40;;;;;;;;;;4420064;32;20605;-79
2022/11/28 01:58:57;;;;;;;18.07;12.83;;;;;;;;;;4420593;32;20236;-77
2022/11/28 02:01:27;;;;;;;22.20;14.50;;;;;;;;;;4420224;32;20262;-78
2022/11/28 02:03:55;;;;;;;23.47;14.37;;;;;;;;;;4419931;32;20681;-79
2022/11/28 02:06:24;;;;;;;25.03;15.90;;;;;;;;;;4420055;32;20237;-79
2022/11/28 02:08:51;;;;;;;25.17;15.97;;;;;;;;;;4419566;32;20596;-78
2022/11/28 02:11:45;;;;;;;22.97;16.23;;;;;;;;;;4419943;32;20771;-78
2022/11/28 02:14:18;;;;;;;17.60;11.50;;;;;;;;;;4407562;32;20329;-80
2022/11/28 02:17:01;;;;;;;15.90;10.63;;;;;;;;;;4419662;32;20237;-79
2022/11/28 02:19:59;;;;;;;11.30;9.30;;;;;;;;;;4420529;32;20295;-80
2022/11/28 02:22:31;;;;;;;11.40;8.50;;;;;;;;;;4423581;32;20217;-79
2022/11/28 02:25:24;;;;;;;13.20;8.57;;;;;;;;;;4432127;32;20290;-79
2022/11/28 02:28:41;;;;;;;13.83;8.17;;;;;;;;;;4427020;32;20253;-83
2022/11/28 02:31:26;;;;;;;13.67;9.33;;;;;;;;;;4343430;33;20777;-83
2022/11/28 02:33:56;;;;;;;12.63;8.77;;;;;;;;;;4397755;32;20245;-84
2022/11/28 02:36:31;;;;;;;15.03;10.40;;;;;;;;;;4404609;32;20775;-83
2022/11/28 02:39:09;;;;;;;13.53;9.53;;;;;;;;;;4404568;32;20279;-83
2022/11/28 02:41:44;;;;;;;12.73;10.00;;;;;;;;;;4416088;32;20311;-80
2022/11/28 02:44:15;;;;;;;13.53;10.20;;;;;;;;;;4419794;32;20238;-84
2022/11/28 02:46:52;;;;;;;10.23;7.33;;;;;;;;;;4419766;32;20282;-84
2022/11/28 02:49:23;;;;;;;10.73;7.83;;;;;;;;;;4419421;32;20317;-84
2022/11/28 02:51:56;;;;;;;12.20;8.20;;;;;;;;;;4419356;32;20248;-83
2022/11/28 02:54:25;;;;;;;10.97;7.90;;;;;;;;;;4418903;32;20640;-84
2022/11/28 02:56:53;;;;;;;11.30;8.37;;;;;;;;;;4419291;32;20221;-85
2022/11/28 02:59:32;;;;;;;9.80;6.80;;;;;;;;;;4419515;32;20241;-83
2022/11/28 03:02:00;;;;;;;10.77;7.20;;;;;;;;;;4419679;32;20508;-82
2022/11/28 03:04:39;;;;;;;8.90;5.27;;;;;;;;;;4419162;32;20379;-84
2022/11/28 03:07:20;;;;;;;6.07;4.57;;;;;;;;;;4419457;32;20224;-81
2022/11/28 03:10:13;;;;;;;10.07;6.43;;;;;;;;;;4419037;32;20535;-84
2022/11/28 03:12:51;;;;;;;11.10;7.43;;;;;;;;;;4412610;32;20264;-84
2022/11/28 03:15:23;;;;;;;6.53;4.90;;;;;;;;;;4418943;32;20216;-82
2022/11/28 03:17:59;;;;;;;7.20;5.13;;;;;;;;;;4418788;32;20725;-81
2022/11/28 03:20:36;;;;;;;6.97;5.20;;;;;;;;;;4419266;32;20212;-85
2022/11/28 03:23:13;;;;;;;8.10;5.60;;;;;;;;;;4419118;32;20232;-81
2022/11/28 03:25:57;;;;;;;8.90;6.73;;;;;;;;;;4418539;32;20321;-84
2022/11/28 03:28:29;;;;;;;7.90;5.63;;;;;;;;;;4418658;32;20229;-84
2022/11/28 03:31:00;;;;;;;7.37;6.33;;;;;;;;;;4418951;32;20254;-79
2022/11/28 03:33:32;;;;;;;8.03;5.90;;;;;;;;;;4417370;32;20229;-84
2022/11/28 03:36:05;;;;;;;8.57;6.17;;;;;;;;;;4404021;32;20223;-83
2022/11/28 03:38:37;;;;;;;7.23;6.07;;;;;;;;;;4403128;32;20314;-80
2022/11/28 03:41:10;;;;;;;8.43;6.47;;;;;;;;;;4411776;32;20237;-83
2022/11/28 03:43:41;;;;;;;5.63;4.40;;;;;;;;;;4418405;32;20682;-84
2022/11/28 03:46:13;;;;;;;7.90;4.90;;;;;;;;;;4418736;32;20296;-83
2022/11/28 03:48:43;;;;;;;6.57;5.00;;;;;;;;;;4404788;32;20273;-82
2022/11/28 03:51:16;;;;;;;6.90;5.60;;;;;;;;;;4414852;32;20627;-81
2022/11/28 03:53:51;;;;;;;7.43;5.77;;;;;;;;;;4403016;32;20229;-81
2022/11/28 03:56:25;;;;;;;14.77;5.43;;;;;;;;;;4403709;32;20287;-81
2022/11/28 03:58:58;;;;;;;7.67;5.97;;;;;;;;;;4403282;32;20294;-81
2022/11/28 04:01:30;;;;;;;13.63;8.17;;;;;;;;;;4403321;32;20222;-85
2022/11/28 04:04:08;;;;;;;6.73;5.90;;;;;;;;;;4403638;32;20229;-82
2022/11/28 04:06:44;;;;;;;9.87;7.00;;;;;;;;;;4390625;32;20209;-84
2022/11/28 04:09:15;;;;;;;9.37;7.73;;;;;;;;;;4402903;32;20221;-83
2022/11/28 04:11:47;;;;;;;13.53;9.10;;;;;;;;;;4402985;32;20600;-81
2022/11/28 04:14:20;;;;;;;9.40;6.93;;;;;;;;;;4403521;32;20232;-83
2022/11/28 04:16:51;;;;;;;8.90;6.87;;;;;;;;;;4403036;32;20228;-82
2022/11/28 04:19:26;;;;;;;9.37;6.23;;;;;;;;;;4403184;32;20660;-80
2022/11/28 04:22:00;;;;;;;7.80;6.30;;;;;;;;;;4410836;32;20240;-81
2022/11/28 04:24:31;;;;;;;6.47;5.37;;;;;;;;;;4417946;32;20256;-85
2022/11/28 04:27:01;;;;;;;5.77;5.03;;;;;;;;;;4418225;32;20753;-81
2022/11/28 04:29:34;;;;;;;7.73;5.80;;;;;;;;;;4404370;32;20306;-80
2022/11/28 04:32:02;;;;;;;9.83;6.13;;;;;;;;;;4402874;32;20664;-81
2022/11/28 04:34:31;;;;;;;9.07;5.83;;;;;;;;;;4410595;32;20237;-81
2022/11/28 04:37:01;;;;;;;8.20;5.63;;;;;;;;;;4418013;32;20286;-83
2022/11/28 04:39:30;;;;;;;9.27;7.27;;;;;;;;;;4417604;32;20228;-84
2022/11/28 04:42:05;;;;;;;10.67;8.03;;;;;;;;;;4417533;32;20245;-80
2022/11/28 04:44:37;;;;;;;10.10;6.60;;;;;;;;;;4418079;32;20248;-81
2022/11/28 04:47:05;;;;;;;11.67;7.27;;;;;;;;;;4417917;32;20537;-81
2022/11/28 04:49:32;;;;;;;8.07;6.03;;;;;;;;;;4418074;32;20790;-81
2022/11/28 04:52:06;;;;;;;14.00;7.97;;;;;;;;;;4417677;32;20308;-80
2022/11/28 04:54:40;;;;;;;17.57;10.60;;;;;;;;;;4417642;32;20228;-80
2022/11/28 04:57:13;;;;;;;16.30;12.03;;;;;;;;;;4418189;32;20225;-80
2022/11/28 04:59:41;;;;;;;14.90;10.97;;;;;;;;;;4420061;32;20287;-80
2022/11/28 05:02:09;;;;;;;18.37;10.93;;;;;;;;;;4420858;32;20560;-80
2022/11/28 05:04:36;;;;;;;13.83;10.23;;;;;;;;;;4421073;32;20232;-79
2022/11/28 05:07:06;;;;;;;20.63;13.23;;;;;;;;;;4420959;32;20217;-80
2022/11/28 05:09:33;;;;;;;22.17;15.00;;;;;;;;;;4420687;32;20252;-81
2022/11/28 05:12:00;;;;;;;16.43;11.43;;;;;;;;;;4420960;32;20229;-80
2022/11/28 05:14:27;;;;;;;13.53;10.37;;;;;;;;;;4420643;32;20313;-80
2022/11/28 05:16:54;;;;;;;13.60;10.83;;;;;;;;;;4420474;32;20295;-79
2022/11/28 05:19:24;;;;;;;19.00;14.07;;;;;;;;;;4405783;32;20314;-79
2022/11/28 05:21:52;;;;;;;20.30;12.93;;;;;;;;;;4405977;32;20298;-78
2022/11/28 05:24:20;;;;;;;17.70;12.00;;;;;;;;;;4405026;32;20337;-79
2022/11/28 05:26:47;;;;;;;17.20;11.83;;;;;;;;;;4405413;32;20276;-79
2022/11/28 05:29:13;;;;;;;23.77;15.43;;;;;;;;;;4417075;32;20256;-80
2022/11/28 05:31:40;;;;;;;21.50;15.13;;;;;;;;;;4420872;32;20217;-81
2022/11/28 05:34:07;;;;;;;19.17;12.67;;;;;;;;;;4415075;32;20229;-80
2022/11/28 05:36:34;;;;;;;16.73;11.80;;;;;;;;;;4405258;32;20217;-80
2022/11/28 05:39:01;;;;;;;21.27;13.03;;;;;;;;;;4404643;32;20240;-79
2022/11/28 05:41:31;;;;;;;19.30;13.67;;;;;;;;;;4415664;32;20233;-81
2022/11/28 05:43:59;;;;;;;19.47;14.33;;;;;;;;;;4419859;32;20217;-79
2022/11/28 05:46:27;;;;;;;18.00;13.93;;;;;;;;;;4419780;32;20228;-83
2022/11/28 05:48:53;;;;;;;21.33;14.80;;;;;;;;;;4419524;32;20301;-81
2022/11/28 05:51:20;;;;;;;21.83;13.90;;;;;;;;;;4415174;32;20242;-82
2022/11/28 05:53:47;;;;;;;18.17;12.37;;;;;;;;;;4404731;32;20229;-84
2022/11/28 05:56:16;;;;;;;23.73;17.10;;;;;;;;;;4404798;32;20260;-83
2022/11/28 05:58:45;;;;;;;22.53;15.13;;;;;;;;;;4404902;32;20279;-81
2022/11/28 06:01:13;;;;;;;16.03;11.00;;;;;;;;;;4404511;32;20291;-82
2022/11/28 06:03:41;;;;;;;10.70;8.63;;;;;;;;;;4405184;32;20633;-82
2022/11/28 06:06:13;;;;;;;14.40;10.70;;;;;;;;;;4409506;32;20326;-82
2022/11/28 06:08:40;;;;;;;14.60;11.10;;;;;;;;;;4420605;32;20368;-82
2022/11/28 06:11:07;;;;;;;23.30;11.07;;;;;;;;;;4417911;32;20292;-81
2022/11/28 06:13:34;;;;;;;15.77;10.80;;;;;;;;;;4416123;32;20225;-85
2022/11/28 06:16:02;;;;;;;16.77;12.07;;;;;;;;;;4409629;32;20274;-83
2022/11/28 06:18:29;;;;;;;18.77;9.77;;;;;;;;;;4405086;32;20330;-78
2022/11/28 06:20:56;;;;;;;15.97;10.13;;;;;;;;;;4404443;32;20263;-83
2022/11/28 06:23:23;;;;;;;15.17;9.47;;;;;;;;;;4403724;32;20235;-75
2022/11/28 06:25:50;;;;;;;15.87;9.80;;;;;;;;;;4403201;32;20364;-76
2022/11/28 06:28:17;;;;;;;18.83;13.40;;;;;;;;;;4408963;32;20325;-77
2022/11/28 06:30:44;;;;;;;18.57;11.47;;;;;;;;;;4417507;32;20260;-76
2022/11/28 06:33:12;;;;;;;12.53;8.43;;;;;;;;;;4417296;32;20269;-83
2022/11/28 06:35:39;;;;;;;12.83;8.83;;;;;;;;;;4402491;32;20373;-80
2022/11/28 06:38:07;;;;;;;16.60;9.17;;;;;;;;;;4402202;32;20349;-86
2022/11/28 06:40:37;;;;;;;17.33;9.93;;;;;;;;;;4408964;32;20245;-83
2022/11/28 06:43:05;;;;;;;19.40;10.80;;;;;;;;;;4418391;32;20232;-85
2022/11/28 06:45:33;;;;;;;12.77;9.33;;;;;;;;;;4417955;32;20229;-82
2022/11/28 06:48:00;;;;;;;16.83;11.93;;;;;;;;;;4419220;32;20321;-82
2022/11/28 06:50:29;;;;;;;27.83;19.90;;;;;;;;;;4420107;32;20244;-84
2022/11/28 07:46:33;;;;;;;7.77;6.87;;;;;;;;;;4480316;31;20366;-84
2022/11/28 07:49:01;;;;;;;10.60;8.30;;;;;;;;;;4465410;32;20280;-84
2022/11/28 07:51:30;;;;;;;10.57;7.03;;;;;;;;;;4465703;32;20213;-84
2022/11/28 07:53:57;;;;;;;10.53;7.03;;;;;;;;;;4465055;32;20224;-84
2022/11/28 07:56:26;;;;;;;11.37;7.63;;;;;;;;;;4465388;32;20712;-84
2022/11/28 07:58:53;;;;;;;16.63;8.73;;;;;;;;;;4465189;32;20212;-86
2022/11/28 08:01:22;;;;;;;15.03;9.40;;;;;;;;;;4464807;32;20746;-85
2022/11/28 08:03:51;;;;;;;10.87;8.23;;;;;;;;;;4464482;32;20235;-85
2022/11/28 08:48:44;;;;;;;3.47;2.97;;;;;;;;;;4456020;32;20268;-83
2022/11/28 08:51:13;;;;;;;6.10;4.73;;;;;;;;;;4456236;32;20265;-80
2022/11/28 08:53:40;;;;;;;5.90;4.20;;;;;;;;;;4461569;32;20221;-81
2022/11/28 08:56:07;;;;;;;3.23;2.80;;;;;;;;;;4461002;32;20306;-84
2022/11/28 08:58:34;;;;;;;8.60;4.90;;;;;;;;;;4461587;32;20212;-81
2022/11/28 09:01:01;;;;;;;21.40;9.97;;;;;;;;;;4460338;32;20228;-81
2022/11/28 09:03:28;;;;;;;14.30;8.57;;;;;;;;;;4461007;32;20332;-79
2022/11/28 09:06:00;;;;;;;21.17;11.57;;;;;;;;;;4460947;32;20220;-81
2022/11/28 09:08:27;;;;;;;12.93;9.67;;;;;;;;;;4461155;32;20881;-84
2022/11/28 09:10:55;;;;;;;74.67;44.13;;;;;;;;;;4461322;32;20221;-82
2022/11/28 09:13:22;;;;;;;42.53;25.20;;;;;;;;;;4461366;32;20276;-82
2022/11/28 09:15:49;;;;;;;20.63;13.60;;;;;;;;;;4452952;32;20232;-80
2022/11/28 09:18:16;;;;;;;7.90;5.60;;;;;;;;;;4445474;32;20286;-81
2022/11/28 09:20:43;;;;;;;15.17;11.10;;;;;;;;;;4447154;32;20237;-82
2022/11/28 09:23:11;;;;;;;15.53;10.33;;;;;;;;;;4460878;32;20228;-86
2022/11/28 09:25:41;;;;;;;8.20;6.37;;;;;;;;;;4460594;32;20299;-82
2022/11/28 09:28:07;;;;;;;37.13;19.57;;;;;;;;;;4460227;32;20368;-82
2022/11/28 09:30:34;;;;;;;30.97;17.80;;;;;;;;;;4460756;32;20660;-88
2022/11/28 09:33:01;;;;;;;15.93;10.83;;;;;;;;;;4460520;32;20307;-82
2022/11/28 09:35:28;;;;;;;15.17;10.97;;;;;;;;;;4460671;32;20708;-81
2022/11/28 09:37:58;;;;;;;17.67;12.67;;;;;;;;;;4463034;32;20256;-86
2022/11/28 09:40:35;;;;;;;16.20;10.90;;;;;;;;;;4460527;32;20247;-81
2022/11/28 09:43:03;;;;;;;12.77;8.07;;;;;;;;;;4460105;32;20260;-83
2022/11/28 09:45:31;;;;;;;35.93;21.33;;;;;;;;;;4461009;32;20251;-82
2022/11/28 09:48:05;;;;;;;5.63;4.27;;;;;;;;;;4466795;32;20264;-80
2022/11/28 09:50:35;;;;;;;6.27;4.57;;;;;;;;;;4476114;32;20224;-80
2022/11/28 09:53:09;;;;;;;3.97;3.47;;;;;;;;;;4472957;32;20622;-83
2022/11/28 09:55:40;;;;;;;6.00;5.10;;;;;;;;;;4458930;32;20220;-84
2022/11/28 09:58:16;;;;;;;6.03;4.80;;;;;;;;;;4450739;32;20266;-81
2022/11/28 10:00:49;;;;;;;6.73;5.00;;;;;;;;;;4450459;32;20276;-83
2022/11/28 10:03:36;;;;;;;6.27;5.00;;;;;;;;;;4449673;32;20621;-82
2022/11/28 10:06:14;;;;;;;4.30;3.90;;;;;;;;;;4450259;32;20248;-85
2022/11/28 10:08:56;;;;;;;5.87;4.97;;;;;;;;;;4449994;32;20284;-83
2022/11/28 10:11:38;;;;;;;6.53;5.53;;;;;;;;;;4450285;32;20300;-82
2022/11/28 10:14:18;;;;;;;20.07;7.73;;;;;;;;;;4450219;32;20264;-82
2022/11/28 10:16:51;;;;;;;8.40;6.40;;;;;;;;;;4449733;32;20316;-82
2022/11/28 10:19:26;;;;;;;9.50;6.40;;;;;;;;;;4450039;32;20323;-85
2022/11/28 10:21:58;;;;;;;12.00;8.00;;;;;;;;;;4449701;32;20296;-80
2022/11/28 10:24:31;;;;;;;6.73;5.87;;;;;;;;;;4449463;32;20271;-86
2022/11/28 10:27:03;;;;;;;6.03;4.57;;;;;;;;;;4449574;32;20334;-84
2022/11/28 10:29:38;;;;;;;6.90;5.47;;;;;;;;;;4449565;32;20261;-81
2022/11/28 10:32:06;;;;;;;9.67;7.17;;;;;;;;;;4449889;32;20244;-85
2022/11/28 10:34:40;;;;;;;8.93;7.70;;;;;;;;;;4449363;32;20304;-82
2022/11/28 10:37:15;;;;;;;5.73;5.00;;;;;;;;;;4448797;32;20223;-87
2022/11/28 10:39:44;;;;;;;8.00;7.17;;;;;;;;;;4449205;32;20244;-82
2022/11/28 10:42:20;;;;;;;5.47;4.93;;;;;;;;;;4449137;32;20239;-87
2022/11/28 10:44:59;;;;;;;4.90;4.00;;;;;;;;;;4449402;32;20271;-86
2022/11/28 10:47:53;;;;;;;19.23;12.50;;;;;;;;;;4449243;32;20762;-85
2022/11/28 10:50:25;;;;;;;16.23;10.77;;;;;;;;;;4446768;32;20264;-81
2022/11/28 10:52:59;;;;;;;9.07;7.67;;;;;;;;;;4449375;32;20228;-85
2022/11/28 10:55:39;;;;;;;7.27;5.77;;;;;;;;;;4449029;32;20262;-81
2022/11/28 10:58:15;;;;;;;5.93;3.90;;;;;;;;;;4449373;32;20276;-83
2022/11/28 11:00:44;;;;;;;6.70;4.67;;;;;;;;;;4459986;32;20661;-83
2022/11/28 11:03:15;;;;;;;5.83;5.10;;;;;;;;;;4463800;32;20300;-81
2022/11/28 11:05:42;;;;;;;5.43;3.77;;;;;;;;;;4463750;32;20224;-82
2022/11/28 11:08:18;;;;;;;6.80;4.50;;;;;;;;;;4464370;32;20720;-82
2022/11/28 11:10:49;;;;;;;7.53;5.87;;;;;;;;;;4464603;32;20220;-78
2022/11/28 11:13:19;;;;;;;13.17;7.17;;;;;;;;;;4465693;32;20240;-86
2022/11/28 11:15:48;;;;;;;15.40;7.67;;;;;;;;;;4464480;32;20268;-87
2022/11/28 11:18:24;;;;;;;8.47;5.40;;;;;;;;;;4463851;32;20235;-78
2022/11/28 11:20:52;;;;;;;13.13;5.47;;;;;;;;;;4463726;32;20262;-78
2022/11/28 11:23:21;;;;;;;8.23;6.80;;;;;;;;;;4464404;32;20776;-78
2022/11/28 11:25:51;;;;;;;12.73;8.00;;;;;;;;;;4464324;32;20610;-90
2022/11/28 11:28:43;;;;;;;11.00;7.87;;;;;;;;;;4469643;32;20299;-79
2022/11/28 11:31:22;;;;;;;6.83;6.13;;;;;;;;;;4469789;32;20252;-87
2022/11/28 11:33:52;;;;;;;6.73;5.70;;;;;;;;;;4467738;32;20295;-88
2022/11/28 11:36:27;;;;;;;15.73;5.37;;;;;;;;;;4463625;32;20938;-83
2022/11/28 11:39:07;;;;;;;7.07;5.07;;;;;;;;;;4463191;32;20317;-85
2022/11/28 11:41:33;;;;;;;9.37;8.17;;;;;;;;;;4463485;32;20269;-83
2022/11/28 11:44:28;;;;;;;14.67;9.80;;;;;;;;;;4465051;32;20258;-83
2022/11/28 11:46:59;;;;;;;10.23;8.60;;;;;;;;;;4464965;32;20630;-82
2022/11/28 11:49:31;;;;;;;15.17;8.63;;;;;;;;;;4464944;32;20228;-89
2022/11/28 11:52:00;;;;;;;10.97;8.40;;;;;;;;;;4465541;32;20688;-93
2022/11/28 11:54:27;;;;;;;17.87;10.67;;;;;;;;;;4464542;32;20240;-92
2022/11/28 11:56:55;;;;;;;16.27;10.87;;;;;;;;;;4448833;32;20268;-92
2022/11/28 11:59:29;;;;;;;17.10;9.60;;;;;;;;;;4450198;32;20280;-83
2022/11/28 12:02:02;;;;;;;14.00;9.20;;;;;;;;;;4449426;32;20236;-88
2022/11/28 12:04:33;;;;;;;12.43;9.37;;;;;;;;;;4449043;32;20338;-92
2022/11/28 12:07:04;;;;;;;14.23;10.33;;;;;;;;;;4448895;32;20216;-89
2022/11/28 12:09:38;;;;;;;17.17;12.67;;;;;;;;;;4449112;32;20688;-89
2022/11/28 12:12:13;;;;;;;10.67;7.67;;;;;;;;;;4449722;32;20223;-94
2022/11/28 12:14:43;;;;;;;10.27;7.17;;;;;;;;;;4449513;32;20766;-89
2022/11/28 12:17:38;;;;;;;8.33;5.63;;;;;;;;;;4449154;32;20236;-91
2022/11/28 12:20:22;;;;;;;5.80;5.00;;;;;;;;;;4449074;32;20232;-90
2022/11/28 12:22:58;;;;;;;9.53;5.87;;;;;;;;;;4449221;32;20341;-90
2022/11/28 12:25:34;;;;;;;8.23;6.60;;;;;;;;;;4448847;32;20228;-90
2022/11/28 12:28:10;;;;;;;8.80;7.07;;;;;;;;;;4448532;32;20697;-86
2022/11/28 12:30:53;;;;;;;7.03;5.53;;;;;;;;;;4448939;32;20216;-91
2022/11/28 12:33:31;;;;;;;6.10;4.73;;;;;;;;;;4448137;32;20615;-79
2022/11/28 12:36:11;;;;;;;6.97;5.33;;;;;;;;;;4448568;32;20208;-87
2022/11/28 12:38:52;;;;;;;6.53;5.47;;;;;;;;;;4448452;32;20244;-80
2022/11/28 12:41:35;;;;;;;5.63;4.60;;;;;;;;;;4448482;32;20393;-82
2022/11/28 12:44:07;;;;;;;6.43;5.17;;;;;;;;;;4448641;32;20739;-84
2022/11/28 12:46:43;;;;;;;8.07;4.87;;;;;;;;;;4448090;32;20296;-87
2022/11/28 12:49:18;;;;;;;9.10;5.37;;;;;;;;;;4448392;32;20409;-88
2022/11/28 12:52:01;;;;;;;20.83;10.20;;;;;;;;;;4448559;32;20312;-89
2022/11/28 12:54:53;;;;;;;12.33;8.83;;;;;;;;;;4448664;32;20229;-81
2022/11/28 12:57:32;;;;;;;13.53;9.27;;;;;;;;;;4449033;32;20300;-81
2022/11/28 13:00:05;;;;;;;15.50;9.93;;;;;;;;;;4448947;32;20243;-82
2022/11/28 13:02:45;;;;;;;17.53;9.93;;;;;;;;;;4447890;32;20659;-81
2022/11/28 13:05:24;;;;;;;17.80;12.00;;;;;;;;;;4448336;32;20264;-83
2022/11/28 13:08:15;;;;;;;26.17;13.67;;;;;;;;;;4448774;32;20245;-87
2022/11/28 13:10:49;;;;;;;15.00;9.77;;;;;;;;;;4448235;32;20266;-87
2022/11/28 13:13:19;;;;;;;24.57;10.23;;;;;;;;;;4448742;32;20239;-87
2022/11/28 13:15:59;;;;;;;16.43;9.43;;;;;;;;;;4448038;32;20353;-83
2022/11/28 13:18:38;;;;;;;20.77;11.53;;;;;;;;;;4446937;32;20309;-87
2022/11/28 13:21:17;;;;;;;14.23;9.30;;;;;;;;;;4446966;32;20258;-85
2022/11/28 13:23:51;;;;;;;10.37;7.80;;;;;;;;;;4446979;32;20708;-80
2022/11/28 13:26:34;;;;;;;10.47;6.80;;;;;;;;;;4451597;32;20208;-84
2022/11/28 13:29:08;;;;;;;9.33;5.70;;;;;;;;;;4460161;32;20755;-82
2022/11/28 13:31:40;;;;;;;8.73;5.93;;;;;;;;;;4459687;32;20326;-78
2022/11/28 13:34:15;;;;;;;17.93;7.63;;;;;;;;;;4464183;32;20255;-83
2022/11/28 13:36:48;;;;;;;21.00;12.53;;;;;;;;;;4463028;32;20231;-84
2022/11/28 13:39:20;;;;;;;7.30;5.93;;;;;;;;;;4470760;32;20301;-87
2022/11/28 13:41:53;;;;;;;11.43;7.70;;;;;;;;;;4463006;32;20221;-84
2022/11/28 13:44:25;;;;;;;14.73;9.47;;;;;;;;;;4457480;32;20281;-78
2022/11/28 13:46:52;;;;;;;10.20;6.47;;;;;;;;;;4459356;32;20308;-84
2022/11/28 13:49:23;;;;;;;8.07;6.47;;;;;;;;;;4459711;32;20624;-80
2022/11/28 13:52:30;;;;;;;8.07;5.67;;;;;;;;;;4468793;32;20302;-89
2022/11/28 13:54:57;;;;;;;5.30;4.33;;;;;;;;;;4466876;32;20262;-78
2022/11/28 13:57:30;;;;;;;6.23;4.40;;;;;;;;;;4467088;32;20280;-87
2022/11/28 14:00:00;;;;;;;6.67;5.10;;;;;;;;;;4466204;32;20264;-82
2022/11/28 14:02:36;;;;;;;15.33;7.17;;;;;;;;;;4466134;32;20291;-86
2022/11/28 14:05:16;;;;;;;13.97;10.53;;;;;;;;;;4466078;32;20303;-87
2022/11/28 14:07:47;;;;;;;9.53;8.10;;;;;;;;;;4455187;32;20241;-85
2022/11/28 14:10:49;;;;;;;7.80;6.40;;;;;;;;;;4450601;32;20228;-86
2022/11/28 14:13:32;;;;;;;11.60;6.33;;;;;;;;;;4448201;32;20268;-79
2022/11/28 14:16:08;;;;;;;6.53;4.63;;;;;;;;;;4450953;32;20249;-87
2022/11/28 14:18:51;;;;;;;16.60;5.70;;;;;;;;;;4450696;32;20236;-87
2022/11/28 14:21:29;;;;;;;9.03;6.20;;;;;;;;;;4450560;32;20276;-85
2022/11/28 14:24:02;;;;;;;10.17;6.77;;;;;;;;;;4450406;32;20622;-87
2022/11/28 14:26:33;;;;;;;12.07;6.50;;;;;;;;;;4450729;32;20265;-79
2022/11/28 14:29:01;;;;;;;7.10;6.13;;;;;;;;;;4450280;32;20301;-83
2022/11/28 14:31:31;;;;;;;12.90;9.17;;;;;;;;;;4450220;32;20309;-84
2022/11/28 14:34:00;;;;;;;10.37;7.80;;;;;;;;;;4450251;32;20291;-86
2022/11/28 14:36:34;;;;;;;11.67;8.77;;;;;;;;;;4450392;32;20290;-81
2022/11/28 14:39:27;;;;;;;18.33;11.37;;;;;;;;;;4449947;32;20319;-88
2022/11/28 14:42:22;;;;;;;25.30;13.87;;;;;;;;;;4460715;32;20289;-84
2022/11/28 14:44:50;;;;;;;19.57;11.53;;;;;;;;;;4465675;32;20229;-87
2022/11/28 14:47:27;;;;;;;14.20;8.87;;;;;;;;;;4465610;32;20251;-86
2022/11/28 14:50:27;;;;;;;18.57;12.00;;;;;;;;;;4465417;32;20242;-86
2022/11/28 14:53:33;;;;;;;16.83;11.13;;;;;;;;;;4466047;32;20710;-87
2022/11/28 14:56:10;;;;;;;20.20;11.47;;;;;;;;;;4465512;32;20295;-87
2022/11/28 14:58:38;;;;;;;24.03;9.87;;;;;;;;;;4465510;32;20243;-87
2022/11/28 15:01:11;;;;;;;11.10;7.10;;;;;;;;;;4465696;32;20216;-85
2022/11/28 15:03:52;;;;;;;13.20;8.70;;;;;;;;;;4465260;32;20264;-86
2022/11/28 15:06:24;;;;;;;8.83;5.60;;;;;;;;;;4465763;32;20201;-83
2022/11/28 15:09:02;;;;;;;7.23;4.83;;;;;;;;;;4465732;32;20316;-86
2022/11/28 15:11:58;;;;;;;9.87;5.90;;;;;;;;;;4466246;32;20719;-87
2022/11/28 15:14:27;;;;;;;14.80;7.67;;;;;;;;;;4465727;32;20246;-87
2022/11/28 15:16:57;;;;;;;16.77;9.27;;;;;;;;;;4465746;32;20659;-87
2022/11/28 15:19:27;;;;;;;16.97;7.50;;;;;;;;;;4464992;32;20282;-81
2022/11/28 15:21:55;;;;;;;8.03;6.20;;;;;;;;;;4465998;32;20259;-89
2022/11/28 15:24:26;;;;;;;15.07;6.93;;;;;;;;;;4465004;32;20312;-88
2022/11/28 15:26:55;;;;;;;12.53;6.63;;;;;;;;;;4466094;32;20229;-85
2022/11/28 15:29:24;;;;;;;7.83;6.30;;;;;;;;;;4465228;32;20303;-91
2022/11/28 15:31:54;;;;;;;8.83;6.70;;;;;;;;;;4466012;32;20260;-80
2022/11/28 15:34:25;;;;;;;15.47;12.50;;;;;;;;;;4461442;32;20377;-80
2022/11/28 15:36:53;;;;;;;33.23;21.83;;;;;;;;;;4465481;32;20337;-86
2022/11/28 15:39:27;;;;;;;32.13;21.07;;;;;;;;;;4468160;32;20259;-84
2022/11/28 15:41:55;;;;;;;37.90;22.43;;;;;;;;;;4465828;32;20224;-85
2022/11/28 15:44:23;;;;;;;32.50;20.50;;;;;;;;;;4461764;32;20234;-84
2022/11/28 15:46:50;;;;;;;50.77;29.17;;;;;;;;;;4464539;32;20280;-78
2022/11/28 15:49:25;;;;;;;52.20;29.90;;;;;;;;;;4460926;32;20264;-86
2022/11/28 15:51:53;;;;;;;70.17;36.43;;;;;;;;;;4462889;32;20296;-86
2022/11/28 15:54:34;;;;;;;54.17;32.03;;;;;;;;;;4465444;32;20299;-85
2022/11/28 15:57:05;;;;;;;80.07;42.77;;;;;;;;;;4461670;32;20793;-80
2022/11/28 15:59:31;;;;;;;94.03;48.03;;;;;;;;;;4460741;32;20356;-84
2022/11/28 16:02:02;;;;;;;107.97;54.23;;;;;;;;;;4456095;32;20273;-86
2022/11/28 16:04:30;;;;;;;71.00;42.03;;;;;;;;;;4449373;32;20236;-90
2022/11/28 16:07:00;;;;;;;68.90;39.17;;;;;;;;;;4449025;32;20243;-87
2022/11/28 16:09:32;;;;;;;73.83;43.23;;;;;;;;;;4449186;32;20236;-88
2022/11/28 16:12:03;;;;;;;80.47;46.17;;;;;;;;;;4449004;32;20220;-82
2022/11/28 16:14:32;;;;;;;132.87;71.50;;;;;;;;;;4449179;32;20325;-88
2022/11/28 16:17:01;;;;;;;109.13;55.90;;;;;;;;;;4449410;32;20242;-90
2022/11/28 16:19:31;;;;;;;100.33;50.87;;;;;;;;;;4449032;32;20790;-89
2022/11/28 16:22:01;;;;;;;56.77;31.40;;;;;;;;;;4449375;32;20680;-89
2022/11/28 16:24:33;;;;;;;49.80;27.57;;;;;;;;;;4448804;32;20248;-83
2022/11/28 16:27:03;;;;;;;40.27;25.50;;;;;;;;;;4448802;32;20354;-86
2022/11/28 16:29:32;;;;;;;43.20;23.93;;;;;;;;;;4448877;32;20313;-87
2022/11/28 16:32:09;;;;;;;46.60;26.07;;;;;;;;;;4449114;32;20232;-90
2022/11/28 16:34:47;;;;;;;54.43;32.97;;;;;;;;;;4448925;32;20646;-83